ホーチミン の空港の天気 - METARとTAF

タンソンニャット国際空港 (ホーチミン) ( VVTS / SGN ) - ベトナム ホーチミン市
飛行場実況気象(Metar)
観測時間01/20 08:30 ICT (01/20 01:30 UTC)
風向・風速北 2m/s
視程10km以上
天気現象
なし
気温28℃
湿度62%
気圧1012hPa
METARVVTS 200130Z 01004KT 320V060 CAVOK 28/20 Q1012 NOSIG
過去の天気等 Google飛行場航空写真 Wunderground天気予報

過去48時間のMETAR

飛行場予報(TAF)
発表時間: 1/20 06:00 ICT (1/19 23:00 UTC)
予報対象時間: 20日7時 ICT ~ 21日13時 ICT
風向・風速東北東 4m/s
視程10km以上
全天の4割程度の雲 雲底高度 460m
全天の4割程度の雲 雲底高度 1,220m
TAF VVTS 192300Z 2000/2106 07008KT 9999 SCT015 SCT040